sensor_id;sensor_type;location;lat;lon;timestamp;temperature;humidity
9699;DHT22;10089;47.876;8.346;2023-06-14T00:00:00;11.90;99.90
9699;DHT22;10089;47.876;8.346;2023-06-14T00:02:25;11.90;99.90
9699;DHT22;10089;47.876;8.346;2023-06-14T00:04:51;11.90;99.90
9699;DHT22;10089;47.876;8.346;2023-06-14T00:07:16;11.90;99.90
9699;DHT22;10089;47.876;8.346;2023-06-14T00:09:42;11.90;99.90
9699;DHT22;10089;47.876;8.346;2023-06-14T00:12:08;11.80;99.90
9699;DHT22;10089;47.876;8.346;2023-06-14T00:14:34;11.80;99.90
9699;DHT22;10089;47.876;8.346;2023-06-14T00:16:59;11.70;99.90
9699;DHT22;10089;47.876;8.346;2023-06-14T00:19:26;11.60;99.90
9699;DHT22;10089;47.876;8.346;2023-06-14T00:21:52;11.50;99.90
9699;DHT22;10089;47.876;8.346;2023-06-14T00:24:18;11.50;99.90
9699;DHT22;10089;47.876;8.346;2023-06-14T00:26:44;11.60;99.90
9699;DHT22;10089;47.876;8.346;2023-06-14T00:29:10;11.60;99.90
9699;DHT22;10089;47.876;8.346;2023-06-14T00:31:35;11.40;99.90
9699;DHT22;10089;47.876;8.346;2023-06-14T00:34:01;11.40;99.90
9699;DHT22;10089;47.876;8.346;2023-06-14T00:36:27;11.40;99.90
9699;DHT22;10089;47.876;8.346;2023-06-14T00:38:52;11.30;99.90
9699;DHT22;10089;47.876;8.346;2023-06-14T00:41:18;11.30;99.90
9699;DHT22;10089;47.876;8.346;2023-06-14T00:43:43;11.30;99.90
9699;DHT22;10089;47.876;8.346;2023-06-14T00:46:09;11.20;99.90
9699;DHT22;10089;47.876;8.346;2023-06-14T00:48:36;11.10;99.90
9699;DHT22;10089;47.876;8.346;2023-06-14T00:51:02;11.10;99.90
9699;DHT22;10089;47.876;8.346;2023-06-14T00:53:30;11.20;99.90
9699;DHT22;10089;47.876;8.346;2023-06-14T00:55:57;11.20;99.90
9699;DHT22;10089;47.876;8.346;2023-06-14T00:58:22;11.00;99.90
9699;DHT22;10089;47.876;8.346;2023-06-14T01:00:48;11.10;99.90
9699;DHT22;10089;47.876;8.346;2023-06-14T01:03:14;11.20;99.90
9699;DHT22;10089;47.876;8.346;2023-06-14T01:05:47;11.20;99.90
9699;DHT22;10089;47.876;8.346;2023-06-14T01:08:32;11.10;99.90
9699;DHT22;10089;47.876;8.346;2023-06-14T01:11:07;10.90;99.90
9699;DHT22;10089;47.876;8.346;2023-06-14T01:13:39;10.80;99.90
9699;DHT22;10089;47.876;8.346;2023-06-14T01:16:07;10.80;99.90
9699;DHT22;10089;47.876;8.346;2023-06-14T01:18:33;10.80;99.90
9699;DHT22;10089;47.876;8.346;2023-06-14T01:21:00;10.80;99.90
9699;DHT22;10089;47.876;8.346;2023-06-14T01:23:32;10.80;99.90
9699;DHT22;10089;47.876;8.346;2023-06-14T01:25:59;10.90;99.90
9699;DHT22;10089;47.876;8.346;2023-06-14T01:28:25;10.60;99.90
9699;DHT22;10089;47.876;8.346;2023-06-14T01:31:00;10.60;99.90
9699;DHT22;10089;47.876;8.346;2023-06-14T01:33:29;10.60;99.90
9699;DHT22;10089;47.876;8.346;2023-06-14T01:35:55;10.50;99.90
9699;DHT22;10089;47.876;8.346;2023-06-14T01:38:27;10.50;1.00
9699;DHT22;10089;47.876;8.346;2023-06-14T01:40:58;10.50;99.90
9699;DHT22;10089;47.876;8.346;2023-06-14T01:43:25;10.50;1.00
9699;DHT22;10089;47.876;8.346;2023-06-14T01:45:53;10.40;1.00
9699;DHT22;10089;47.876;8.346;2023-06-14T01:48:20;10.30;1.00
9699;DHT22;10089;47.876;8.346;2023-06-14T01:50:46;10.20;1.00
9699;DHT22;10089;47.876;8.346;2023-06-14T01:53:13;10.30;1.00
9699;DHT22;10089;47.876;8.346;2023-06-14T01:55:38;10.20;1.00
9699;DHT22;10089;47.876;8.346;2023-06-14T01:58:09;10.20;1.00
9699;DHT22;10089;47.876;8.346;2023-06-14T02:00:34;10.20;1.00
9699;DHT22;10089;47.876;8.346;2023-06-14T02:03:00;10.10;1.00
9699;DHT22;10089;47.876;8.346;2023-06-14T02:05:26;10.10;1.00
9699;DHT22;10089;47.876;8.346;2023-06-14T02:07:52;10.00;1.00
9699;DHT22;10089;47.876;8.346;2023-06-14T02:10:18;10.10;1.00
9699;DHT22;10089;47.876;8.346;2023-06-14T02:12:44;10.00;1.00
9699;DHT22;10089;47.876;8.346;2023-06-14T02:15:10;9.90;1.00
9699;DHT22;10089;47.876;8.346;2023-06-14T02:17:42;9.90;1.00
9699;DHT22;10089;47.876;8.346;2023-06-14T02:20:08;10.00;1.00
9699;DHT22;10089;47.876;8.346;2023-06-14T02:22:35;9.80;1.00
9699;DHT22;10089;47.876;8.346;2023-06-14T02:25:00;9.80;1.00
9699;DHT22;10089;47.876;8.346;2023-06-14T02:27:26;9.80;1.00
9699;DHT22;10089;47.876;8.346;2023-06-14T02:29:51;9.90;1.00
9699;DHT22;10089;47.876;8.346;2023-06-14T02:32:17;9.90;1.00
9699;DHT22;10089;47.876;8.346;2023-06-14T02:34:42;9.90;1.00
9699;DHT22;10089;47.876;8.346;2023-06-14T02:37:08;9.90;1.00
9699;DHT22;10089;47.876;8.346;2023-06-14T02:39:34;9.90;1.00
9699;DHT22;10089;47.876;8.346;2023-06-14T02:42:00;10.00;1.00
9699;DHT22;10089;47.876;8.346;2023-06-14T02:44:26;10.00;1.00
9699;DHT22;10089;47.876;8.346;2023-06-14T02:46:56;9.90;1.00
9699;DHT22;10089;47.876;8.346;2023-06-14T02:49:22;9.90;1.00
9699;DHT22;10089;47.876;8.346;2023-06-14T02:51:48;9.90;1.00
9699;DHT22;10089;47.876;8.346;2023-06-14T02:54:13;9.80;1.00
9699;DHT22;10089;47.876;8.346;2023-06-14T02:56:39;9.80;1.00
9699;DHT22;10089;47.876;8.346;2023-06-14T02:59:06;9.80;1.00
9699;DHT22;10089;47.876;8.346;2023-06-14T03:01:32;9.70;1.00
9699;DHT22;10089;47.876;8.346;2023-06-14T03:04:07;9.70;1.00
9699;DHT22;10089;47.876;8.346;2023-06-14T03:06:32;9.70;1.00
9699;DHT22;10089;47.876;8.346;2023-06-14T03:08:59;9.60;1.00
9699;DHT22;10089;47.876;8.346;2023-06-14T03:11:26;9.60;1.00
9699;DHT22;10089;47.876;8.346;2023-06-14T03:13:53;9.50;1.00
9699;DHT22;10089;47.876;8.346;2023-06-14T03:16:19;9.40;1.00
9699;DHT22;10089;47.876;8.346;2023-06-14T03:18:45;9.40;1.00
9699;DHT22;10089;47.876;8.346;2023-06-14T03:21:11;9.30;1.00
9699;DHT22;10089;47.876;8.346;2023-06-14T03:23:36;9.30;1.00
9699;DHT22;10089;47.876;8.346;2023-06-14T03:26:02;9.20;1.00
9699;DHT22;10089;47.876;8.346;2023-06-14T03:28:28;9.30;1.00
9699;DHT22;10089;47.876;8.346;2023-06-14T03:30:53;9.30;1.00
9699;DHT22;10089;47.876;8.346;2023-06-14T03:33:19;9.30;1.00
9699;DHT22;10089;47.876;8.346;2023-06-14T03:35:44;9.30;1.00
9699;DHT22;10089;47.876;8.346;2023-06-14T03:38:10;9.40;1.00
9699;DHT22;10089;47.876;8.346;2023-06-14T03:40:36;9.40;11.70
9699;DHT22;10089;47.876;8.346;2023-06-14T03:43:01;9.50;1.00
9699;DHT22;10089;47.876;8.346;2023-06-14T03:45:27;9.50;1.00
9699;DHT22;10089;47.876;8.346;2023-06-14T03:47:53;9.40;1.00
9699;DHT22;10089;47.876;8.346;2023-06-14T03:50:20;9.40;1.00
9699;DHT22;10089;47.876;8.346;2023-06-14T03:52:48;9.40;1.00
9699;DHT22;10089;47.876;8.346;2023-06-14T03:55:14;9.40;1.00
9699;DHT22;10089;47.876;8.346;2023-06-14T03:57:41;9.40;1.00
9699;DHT22;10089;47.876;8.346;2023-06-14T04:00:08;9.40;1.00
9699;DHT22;10089;47.876;8.346;2023-06-14T04:02:35;9.40;1.00
9699;DHT22;10089;47.876;8.346;2023-06-14T04:05:02;9.50;1.00
9699;DHT22;10089;47.876;8.346;2023-06-14T04:07:28;9.60;1.00
9699;DHT22;10089;47.876;8.346;2023-06-14T04:09:55;9.60;1.00
9699;DHT22;10089;47.876;8.346;2023-06-14T04:12:21;9.70;1.00
9699;DHT22;10089;47.876;8.346;2023-06-14T04:14:46;9.80;1.00
9699;DHT22;10089;47.876;8.346;2023-06-14T04:17:12;9.90;1.00
9699;DHT22;10089;47.876;8.346;2023-06-14T04:19:37;10.00;1.00
9699;DHT22;10089;47.876;8.346;2023-06-14T04:22:03;10.10;1.00
9699;DHT22;10089;47.876;8.346;2023-06-14T04:24:29;10.20;1.00
9699;DHT22;10089;47.876;8.346;2023-06-14T04:26:58;10.30;1.00
9699;DHT22;10089;47.876;8.346;2023-06-14T04:29:24;10.40;1.00
9699;DHT22;10089;47.876;8.346;2023-06-14T04:31:53;10.40;1.00
9699;DHT22;10089;47.876;8.346;2023-06-14T04:34:20;10.50;1.00
9699;DHT22;10089;47.876;8.346;2023-06-14T04:36:47;10.50;1.00
9699;DHT22;10089;47.876;8.346;2023-06-14T04:39:19;10.70;1.00
9699;DHT22;10089;47.876;8.346;2023-06-14T04:41:45;10.80;1.00
9699;DHT22;10089;47.876;8.346;2023-06-14T04:44:12;11.00;1.00
9699;DHT22;10089;47.876;8.346;2023-06-14T04:46:38;11.10;1.00
9699;DHT22;10089;47.876;8.346;2023-06-14T04:49:20;11.30;1.00
9699;DHT22;10089;47.876;8.346;2023-06-14T04:51:46;11.40;1.00
9699;DHT22;10089;47.876;8.346;2023-06-14T04:54:12;11.70;1.00
9699;DHT22;10089;47.876;8.346;2023-06-14T04:56:41;12.10;1.00
9699;DHT22;10089;47.876;8.346;2023-06-14T04:59:11;12.40;1.00
9699;DHT22;10089;47.876;8.346;2023-06-14T05:01:38;12.90;1.00
9699;DHT22;10089;47.876;8.346;2023-06-14T05:04:04;13.50;1.00
9699;DHT22;10089;47.876;8.346;2023-06-14T05:06:30;13.90;99.90
9699;DHT22;10089;47.876;8.346;2023-06-14T05:08:56;14.40;99.90
9699;DHT22;10089;47.876;8.346;2023-06-14T05:11:22;14.80;99.90
9699;DHT22;10089;47.876;8.346;2023-06-14T05:13:49;15.20;99.90
9699;DHT22;10089;47.876;8.346;2023-06-14T05:16:16;15.40;99.90
9699;DHT22;10089;47.876;8.346;2023-06-14T05:18:44;15.50;99.90
9699;DHT22;10089;47.876;8.346;2023-06-14T05:21:11;16.00;99.90
9699;DHT22;10089;47.876;8.346;2023-06-14T05:23:36;16.20;99.90
9699;DHT22;10089;47.876;8.346;2023-06-14T05:26:02;16.50;99.90
9699;DHT22;10089;47.876;8.346;2023-06-14T05:28:29;16.90;99.90
9699;DHT22;10089;47.876;8.346;2023-06-14T05:30:56;17.00;99.90
9699;DHT22;10089;47.876;8.346;2023-06-14T05:33:21;17.00;99.90
9699;DHT22;10089;47.876;8.346;2023-06-14T05:35:47;17.10;99.90
9699;DHT22;10089;47.876;8.346;2023-06-14T05:38:13;17.40;99.90
9699;DHT22;10089;47.876;8.346;2023-06-14T05:40:38;17.60;99.90
9699;DHT22;10089;47.876;8.346;2023-06-14T05:43:04;17.90;99.90
9699;DHT22;10089;47.876;8.346;2023-06-14T05:45:29;18.20;99.90
9699;DHT22;10089;47.876;8.346;2023-06-14T05:47:55;18.00;99.90
9699;DHT22;10089;47.876;8.346;2023-06-14T05:50:21;18.00;99.90
9699;DHT22;10089;47.876;8.346;2023-06-14T05:52:46;17.70;99.90
9699;DHT22;10089;47.876;8.346;2023-06-14T05:55:12;17.90;99.90
9699;DHT22;10089;47.876;8.346;2023-06-14T05:57:38;18.20;99.90
9699;DHT22;10089;47.876;8.346;2023-06-14T06:00:04;18.40;99.90
9699;DHT22;10089;47.876;8.346;2023-06-14T06:02:48;18.90;99.90
9699;DHT22;10089;47.876;8.346;2023-06-14T06:05:14;19.00;99.90
9699;DHT22;10089;47.876;8.346;2023-06-14T06:07:41;19.20;99.90
9699;DHT22;10089;47.876;8.346;2023-06-14T06:10:07;19.50;99.90
9699;DHT22;10089;47.876;8.346;2023-06-14T06:12:33;19.60;99.90
9699;DHT22;10089;47.876;8.346;2023-06-14T06:14:59;19.90;99.90
9699;DHT22;10089;47.876;8.346;2023-06-14T06:17:25;20.20;95.50
9699;DHT22;10089;47.876;8.346;2023-06-14T06:19:51;20.30;97.80
9699;DHT22;10089;47.876;8.346;2023-06-14T06:22:17;20.20;88.40
9699;DHT22;10089;47.876;8.346;2023-06-14T06:24:43;20.20;89.10
9699;DHT22;10089;47.876;8.346;2023-06-14T06:27:08;20.10;82.90
9699;DHT22;10089;47.876;8.346;2023-06-14T06:29:35;19.70;53.70
9699;DHT22;10089;47.876;8.346;2023-06-14T06:32:01;19.50;67.30
9699;DHT22;10089;47.876;8.346;2023-06-14T06:34:27;19.90;63.30
9699;DHT22;10089;47.876;8.346;2023-06-14T06:36:52;20.20;77.70
9699;DHT22;10089;47.876;8.346;2023-06-14T06:39:18;20.50;78.40
9699;DHT22;10089;47.876;8.346;2023-06-14T06:41:43;20.40;48.30
9699;DHT22;10089;47.876;8.346;2023-06-14T06:44:09;20.60;58.20
9699;DHT22;10089;47.876;8.346;2023-06-14T06:46:38;21.00;48.70
9699;DHT22;10089;47.876;8.346;2023-06-14T06:49:06;21.20;38.60
9699;DHT22;10089;47.876;8.346;2023-06-14T06:51:32;20.60;37.10
9699;DHT22;10089;47.876;8.346;2023-06-14T06:53:58;21.00;49.60
9699;DHT22;10089;47.876;8.346;2023-06-14T06:56:24;21.80;29.80
9699;DHT22;10089;47.876;8.346;2023-06-14T06:58:52;21.90;29.90
9699;DHT22;10089;47.876;8.346;2023-06-14T07:01:18;21.80;21.60
9699;DHT22;10089;47.876;8.346;2023-06-14T07:03:45;22.00;20.60
9699;DHT22;10089;47.876;8.346;2023-06-14T07:06:11;22.10;22.00
9699;DHT22;10089;47.876;8.346;2023-06-14T07:08:37;22.60;28.60
9699;DHT22;10089;47.876;8.346;2023-06-14T07:11:04;22.80;16.60
9699;DHT22;10089;47.876;8.346;2023-06-14T07:13:30;22.80;9.10
9699;DHT22;10089;47.876;8.346;2023-06-14T07:15:58;22.40;11.40
9699;DHT22;10089;47.876;8.346;2023-06-14T07:18:23;22.30;6.80
9699;DHT22;10089;47.876;8.346;2023-06-14T07:20:49;22.40;8.20
9699;DHT22;10089;47.876;8.346;2023-06-14T07:23:15;23.00;4.80
9699;DHT22;10089;47.876;8.346;2023-06-14T07:25:41;23.00;1.00
9699;DHT22;10089;47.876;8.346;2023-06-14T07:28:06;22.70;1.00
9699;DHT22;10089;47.876;8.346;2023-06-14T07:30:32;22.70;5.10
9699;DHT22;10089;47.876;8.346;2023-06-14T07:32:58;23.00;11.00
9699;DHT22;10089;47.876;8.346;2023-06-14T07:35:24;22.90;1.00
9699;DHT22;10089;47.876;8.346;2023-06-14T07:37:49;22.60;1.00
9699;DHT22;10089;47.876;8.346;2023-06-14T07:40:15;23.10;20.70
9699;DHT22;10089;47.876;8.346;2023-06-14T07:42:41;23.30;1.00
9699;DHT22;10089;47.876;8.346;2023-06-14T07:45:06;23.60;2.20
9699;DHT22;10089;47.876;8.346;2023-06-14T07:47:33;23.90;1.00
9699;DHT22;10089;47.876;8.346;2023-06-14T07:49:59;24.00;1.00
9699;DHT22;10089;47.876;8.346;2023-06-14T07:52:25;23.90;1.00
9699;DHT22;10089;47.876;8.346;2023-06-14T07:54:51;23.90;1.00
9699;DHT22;10089;47.876;8.346;2023-06-14T07:57:17;23.80;1.00
9699;DHT22;10089;47.876;8.346;2023-06-14T07:59:45;23.30;1.00
9699;DHT22;10089;47.876;8.346;2023-06-14T08:02:11;23.10;1.00
9699;DHT22;10089;47.876;8.346;2023-06-14T08:04:37;23.40;1.00
9699;DHT22;10089;47.876;8.346;2023-06-14T08:07:04;23.10;1.00
9699;DHT22;10089;47.876;8.346;2023-06-14T08:09:29;23.70;1.00
9699;DHT22;10089;47.876;8.346;2023-06-14T08:11:55;24.00;1.00
9699;DHT22;10089;47.876;8.346;2023-06-14T08:14:21;24.00;1.00
9699;DHT22;10089;47.876;8.346;2023-06-14T08:16:47;23.60;1.00
9699;DHT22;10089;47.876;8.346;2023-06-14T08:19:13;24.30;1.00
9699;DHT22;10089;47.876;8.346;2023-06-14T08:21:39;23.90;1.00
9699;DHT22;10089;47.876;8.346;2023-06-14T08:24:05;23.80;1.00
9699;DHT22;10089;47.876;8.346;2023-06-14T08:26:31;23.80;1.00
9699;DHT22;10089;47.876;8.346;2023-06-14T08:28:57;24.20;1.00
9699;DHT22;10089;47.876;8.346;2023-06-14T08:31:23;23.70;1.00
9699;DHT22;10089;47.876;8.346;2023-06-14T08:33:49;24.20;1.00
9699;DHT22;10089;47.876;8.346;2023-06-14T08:36:15;23.70;1.00
9699;DHT22;10089;47.876;8.346;2023-06-14T08:38:40;23.50;1.00
9699;DHT22;10089;47.876;8.346;2023-06-14T08:41:06;23.80;1.00
9699;DHT22;10089;47.876;8.346;2023-06-14T08:43:33;23.80;1.00
9699;DHT22;10089;47.876;8.346;2023-06-14T08:46:02;24.20;1.00
9699;DHT22;10089;47.876;8.346;2023-06-14T08:48:29;24.60;1.00
9699;DHT22;10089;47.876;8.346;2023-06-14T08:50:59;24.30;1.00
9699;DHT22;10089;47.876;8.346;2023-06-14T08:53:31;24.40;1.00
9699;DHT22;10089;47.876;8.346;2023-06-14T08:56:00;24.40;1.00
9699;DHT22;10089;47.876;8.346;2023-06-14T08:58:28;24.20;1.00
9699;DHT22;10089;47.876;8.346;2023-06-14T09:00:57;24.50;1.00
9699;DHT22;10089;47.876;8.346;2023-06-14T09:03:23;24.70;1.00
9699;DHT22;10089;47.876;8.346;2023-06-14T09:05:58;24.70;1.00
9699;DHT22;10089;47.876;8.346;2023-06-14T09:08:27;24.20;1.00
9699;DHT22;10089;47.876;8.346;2023-06-14T09:10:56;24.20;1.00
9699;DHT22;10089;47.876;8.346;2023-06-14T09:13:22;24.70;1.00
9699;DHT22;10089;47.876;8.346;2023-06-14T09:15:47;25.10;1.00
9699;DHT22;10089;47.876;8.346;2023-06-14T09:18:13;25.60;1.00
9699;DHT22;10089;47.876;8.346;2023-06-14T09:20:38;25.40;1.00
9699;DHT22;10089;47.876;8.346;2023-06-14T09:23:05;25.30;1.00
9699;DHT22;10089;47.876;8.346;2023-06-14T09:25:30;25.20;1.00
9699;DHT22;10089;47.876;8.346;2023-06-14T09:27:56;25.10;1.00
9699;DHT22;10089;47.876;8.346;2023-06-14T09:30:22;24.90;1.00
9699;DHT22;10089;47.876;8.346;2023-06-14T09:32:47;25.20;1.00
9699;DHT22;10089;47.876;8.346;2023-06-14T09:35:17;25.40;1.00
9699;DHT22;10089;47.876;8.346;2023-06-14T09:37:43;24.90;1.00
9699;DHT22;10089;47.876;8.346;2023-06-14T09:40:09;25.10;1.00
9699;DHT22;10089;47.876;8.346;2023-06-14T09:42:36;25.50;1.00
9699;DHT22;10089;47.876;8.346;2023-06-14T09:45:03;25.80;1.00
9699;DHT22;10089;47.876;8.346;2023-06-14T09:47:29;25.80;1.00
9699;DHT22;10089;47.876;8.346;2023-06-14T09:49:55;25.80;1.00
9699;DHT22;10089;47.876;8.346;2023-06-14T09:52:21;26.00;1.00
9699;DHT22;10089;47.876;8.346;2023-06-14T09:54:48;25.60;1.00
9699;DHT22;10089;47.876;8.346;2023-06-14T09:57:17;24.50;1.00
9699;DHT22;10089;47.876;8.346;2023-06-14T09:59:46;25.30;1.00
9699;DHT22;10089;47.876;8.346;2023-06-14T10:02:26;25.50;1.00
9699;DHT22;10089;47.876;8.346;2023-06-14T10:05:06;26.00;1.00
9699;DHT22;10089;47.876;8.346;2023-06-14T10:07:43;25.70;1.00
9699;DHT22;10089;47.876;8.346;2023-06-14T10:10:10;24.80;1.00
9699;DHT22;10089;47.876;8.346;2023-06-14T10:12:36;24.50;1.00
9699;DHT22;10089;47.876;8.346;2023-06-14T10:15:02;23.80;1.00
9699;DHT22;10089;47.876;8.346;2023-06-14T10:17:47;23.50;1.00
9699;DHT22;10089;47.876;8.346;2023-06-14T10:22:50;24.50;1.00
9699;DHT22;10089;47.876;8.346;2023-06-14T10:25:27;24.60;1.00
9699;DHT22;10089;47.876;8.346;2023-06-14T10:28:02;24.70;1.00
9699;DHT22;10089;47.876;8.346;2023-06-14T10:30:28;24.80;1.00
9699;DHT22;10089;47.876;8.346;2023-06-14T10:33:07;25.00;1.00
9699;DHT22;10089;47.876;8.346;2023-06-14T10:35:34;23.60;1.00
9699;DHT22;10089;47.876;8.346;2023-06-14T10:38:29;23.30;1.00
9699;DHT22;10089;47.876;8.346;2023-06-14T10:40:56;24.40;1.00
9699;DHT22;10089;47.876;8.346;2023-06-14T10:43:23;25.20;1.00
9699;DHT22;10089;47.876;8.346;2023-06-14T10:46:11;25.40;1.00
9699;DHT22;10089;47.876;8.346;2023-06-14T10:48:41;25.50;1.00
9699;DHT22;10089;47.876;8.346;2023-06-14T10:51:15;25.90;1.00
9699;DHT22;10089;47.876;8.346;2023-06-14T10:53:49;25.60;1.00
9699;DHT22;10089;47.876;8.346;2023-06-14T10:56:28;25.10;1.00
9699;DHT22;10089;47.876;8.346;2023-06-14T10:58:56;25.30;1.00
9699;DHT22;10089;47.876;8.346;2023-06-14T11:04:12;24.20;1.00
9699;DHT22;10089;47.876;8.346;2023-06-14T11:06:48;23.90;1.00
9699;DHT22;10089;47.876;8.346;2023-06-14T11:11:57;23.90;1.00
9699;DHT22;10089;47.876;8.346;2023-06-14T11:14:24;23.50;1.00
9699;DHT22;10089;47.876;8.346;2023-06-14T11:16:50;23.90;1.00
9699;DHT22;10089;47.876;8.346;2023-06-14T11:19:16;24.40;1.00
9699;DHT22;10089;47.876;8.346;2023-06-14T11:21:47;24.90;1.00
9699;DHT22;10089;47.876;8.346;2023-06-14T11:24:13;24.90;1.00
9699;DHT22;10089;47.876;8.346;2023-06-14T11:26:40;25.20;1.00
9699;DHT22;10089;47.876;8.346;2023-06-14T11:29:05;25.30;1.00
9699;DHT22;10089;47.876;8.346;2023-06-14T11:31:31;25.50;1.00
9699;DHT22;10089;47.876;8.346;2023-06-14T11:33:58;25.50;1.00
9699;DHT22;10089;47.876;8.346;2023-06-14T11:36:28;25.50;1.00
9699;DHT22;10089;47.876;8.346;2023-06-14T11:39:06;25.20;1.00
9699;DHT22;10089;47.876;8.346;2023-06-14T11:41:42;25.40;1.00
9699;DHT22;10089;47.876;8.346;2023-06-14T11:44:09;25.50;1.00
9699;DHT22;10089;47.876;8.346;2023-06-14T11:46:35;25.50;1.00
9699;DHT22;10089;47.876;8.346;2023-06-14T11:49:02;25.40;1.00
9699;DHT22;10089;47.876;8.346;2023-06-14T11:51:33;25.20;1.00
9699;DHT22;10089;47.876;8.346;2023-06-14T11:54:03;24.30;1.00
9699;DHT22;10089;47.876;8.346;2023-06-14T11:56:31;24.30;1.00
9699;DHT22;10089;47.876;8.346;2023-06-14T11:58:57;24.50;1.00
9699;DHT22;10089;47.876;8.346;2023-06-14T12:01:23;24.80;1.00
9699;DHT22;10089;47.876;8.346;2023-06-14T12:03:52;24.80;1.00
9699;DHT22;10089;47.876;8.346;2023-06-14T12:06:29;25.00;1.00
9699;DHT22;10089;47.876;8.346;2023-06-14T12:08:58;25.00;1.00
9699;DHT22;10089;47.876;8.346;2023-06-14T12:11:24;25.00;1.00
9699;DHT22;10089;47.876;8.346;2023-06-14T12:13:53;24.20;1.00
9699;DHT22;10089;47.876;8.346;2023-06-14T12:16:19;24.80;1.00
9699;DHT22;10089;47.876;8.346;2023-06-14T12:18:44;24.80;1.00
9699;DHT22;10089;47.876;8.346;2023-06-14T12:21:10;24.80;1.00
9699;DHT22;10089;47.876;8.346;2023-06-14T12:23:46;24.70;1.00
9699;DHT22;10089;47.876;8.346;2023-06-14T12:26:13;24.80;1.00
9699;DHT22;10089;47.876;8.346;2023-06-14T12:28:40;25.10;1.00
9699;DHT22;10089;47.876;8.346;2023-06-14T12:31:07;25.50;1.00
9699;DHT22;10089;47.876;8.346;2023-06-14T12:33:33;25.60;1.00
9699;DHT22;10089;47.876;8.346;2023-06-14T12:35:58;24.80;1.00
9699;DHT22;10089;47.876;8.346;2023-06-14T12:38:24;25.00;1.00
9699;DHT22;10089;47.876;8.346;2023-06-14T12:40:50;25.00;1.00
9699;DHT22;10089;47.876;8.346;2023-06-14T12:43:15;25.00;1.00
9699;DHT22;10089;47.876;8.346;2023-06-14T12:45:41;24.80;1.00
9699;DHT22;10089;47.876;8.346;2023-06-14T12:48:06;25.20;1.00
9699;DHT22;10089;47.876;8.346;2023-06-14T12:50:34;25.60;1.00
9699;DHT22;10089;47.876;8.346;2023-06-14T12:53:00;25.70;1.00
9699;DHT22;10089;47.876;8.346;2023-06-14T12:55:26;25.80;1.00
9699;DHT22;10089;47.876;8.346;2023-06-14T12:57:51;25.70;1.00
9699;DHT22;10089;47.876;8.346;2023-06-14T13:00:17;25.10;1.00
9699;DHT22;10089;47.876;8.346;2023-06-14T13:02:43;24.90;1.00
9699;DHT22;10089;47.876;8.346;2023-06-14T13:05:09;24.90;1.00
9699;DHT22;10089;47.876;8.346;2023-06-14T13:07:35;25.00;1.00
9699;DHT22;10089;47.876;8.346;2023-06-14T13:10:01;25.10;1.00
9699;DHT22;10089;47.876;8.346;2023-06-14T13:15:49;25.30;1.00
9699;DHT22;10089;47.876;8.346;2023-06-14T13:18:15;24.10;1.00
9699;DHT22;10089;47.876;8.346;2023-06-14T13:20:41;24.40;1.00
9699;DHT22;10089;47.876;8.346;2023-06-14T13:23:07;25.00;1.00
9699;DHT22;10089;47.876;8.346;2023-06-14T13:25:37;25.00;1.00
9699;DHT22;10089;47.876;8.346;2023-06-14T13:28:04;25.20;1.00
9699;DHT22;10089;47.876;8.346;2023-06-14T13:30:30;25.10;1.00
9699;DHT22;10089;47.876;8.346;2023-06-14T13:32:56;24.90;1.00
9699;DHT22;10089;47.876;8.346;2023-06-14T13:35:22;25.10;1.00
9699;DHT22;10089;47.876;8.346;2023-06-14T13:37:47;24.70;1.00
9699;DHT22;10089;47.876;8.346;2023-06-14T13:40:13;25.00;1.00
9699;DHT22;10089;47.876;8.346;2023-06-14T13:42:39;25.00;1.00
9699;DHT22;10089;47.876;8.346;2023-06-14T13:45:06;24.30;1.00
9699;DHT22;10089;47.876;8.346;2023-06-14T13:47:32;24.20;1.00
9699;DHT22;10089;47.876;8.346;2023-06-14T13:49:58;24.60;1.00
9699;DHT22;10089;47.876;8.346;2023-06-14T13:52:24;24.60;1.00
9699;DHT22;10089;47.876;8.346;2023-06-14T13:54:49;24.80;1.00
9699;DHT22;10089;47.876;8.346;2023-06-14T13:57:16;23.90;1.00
9699;DHT22;10089;47.876;8.346;2023-06-14T13:59:42;24.40;1.00
9699;DHT22;10089;47.876;8.346;2023-06-14T14:02:10;24.70;1.00
9699;DHT22;10089;47.876;8.346;2023-06-14T14:04:36;24.60;1.00
9699;DHT22;10089;47.876;8.346;2023-06-14T14:07:03;24.60;1.00
9699;DHT22;10089;47.876;8.346;2023-06-14T14:09:29;24.90;1.00
9699;DHT22;10089;47.876;8.346;2023-06-14T14:11:54;25.10;1.00
9699;DHT22;10089;47.876;8.346;2023-06-14T14:14:21;25.00;1.00
9699;DHT22;10089;47.876;8.346;2023-06-14T14:16:46;24.80;1.00
9699;DHT22;10089;47.876;8.346;2023-06-14T14:19:12;24.30;1.00
9699;DHT22;10089;47.876;8.346;2023-06-14T14:21:37;24.30;1.00
9699;DHT22;10089;47.876;8.346;2023-06-14T14:24:03;24.20;1.00
9699;DHT22;10089;47.876;8.346;2023-06-14T14:26:29;24.20;1.00
9699;DHT22;10089;47.876;8.346;2023-06-14T14:28:54;24.40;1.00
9699;DHT22;10089;47.876;8.346;2023-06-14T14:31:20;24.20;1.00
9699;DHT22;10089;47.876;8.346;2023-06-14T14:33:46;24.00;1.00
9699;DHT22;10089;47.876;8.346;2023-06-14T14:36:11;23.70;1.00
9699;DHT22;10089;47.876;8.346;2023-06-14T14:38:37;24.00;1.00
9699;DHT22;10089;47.876;8.346;2023-06-14T14:41:02;24.10;1.00
9699;DHT22;10089;47.876;8.346;2023-06-14T14:43:29;24.10;1.00
9699;DHT22;10089;47.876;8.346;2023-06-14T14:45:56;24.30;1.00
9699;DHT22;10089;47.876;8.346;2023-06-14T14:48:22;24.20;1.00
9699;DHT22;10089;47.876;8.346;2023-06-14T14:50:49;24.40;1.00
9699;DHT22;10089;47.876;8.346;2023-06-14T14:53:14;24.40;1.00
9699;DHT22;10089;47.876;8.346;2023-06-14T14:55:43;24.70;1.00
9699;DHT22;10089;47.876;8.346;2023-06-14T14:58:09;24.50;1.00
9699;DHT22;10089;47.876;8.346;2023-06-14T15:00:35;24.40;1.00
9699;DHT22;10089;47.876;8.346;2023-06-14T15:03:00;24.00;1.00
9699;DHT22;10089;47.876;8.346;2023-06-14T15:05:26;23.70;1.00
9699;DHT22;10089;47.876;8.346;2023-06-14T15:07:52;23.60;1.00
9699;DHT22;10089;47.876;8.346;2023-06-14T15:10:17;23.40;1.00
9699;DHT22;10089;47.876;8.346;2023-06-14T15:12:43;23.60;1.00
9699;DHT22;10089;47.876;8.346;2023-06-14T15:15:09;23.50;1.00
9699;DHT22;10089;47.876;8.346;2023-06-14T15:17:35;23.00;1.00
9699;DHT22;10089;47.876;8.346;2023-06-14T15:20:01;23.20;1.00
9699;DHT22;10089;47.876;8.346;2023-06-14T15:22:26;23.40;1.00
9699;DHT22;10089;47.876;8.346;2023-06-14T15:24:52;23.60;1.00
9699;DHT22;10089;47.876;8.346;2023-06-14T15:27:18;23.50;1.00
9699;DHT22;10089;47.876;8.346;2023-06-14T15:29:44;23.60;1.00
9699;DHT22;10089;47.876;8.346;2023-06-14T15:32:10;23.60;1.00
9699;DHT22;10089;47.876;8.346;2023-06-14T15:34:36;23.60;1.00
9699;DHT22;10089;47.876;8.346;2023-06-14T15:37:03;23.60;1.00
9699;DHT22;10089;47.876;8.346;2023-06-14T15:39:29;23.50;1.00
9699;DHT22;10089;47.876;8.346;2023-06-14T15:41:58;23.30;1.00
9699;DHT22;10089;47.876;8.346;2023-06-14T15:44:25;23.40;1.00
9699;DHT22;10089;47.876;8.346;2023-06-14T15:46:50;23.70;1.00
9699;DHT22;10089;47.876;8.346;2023-06-14T15:49:16;23.60;1.00
9699;DHT22;10089;47.876;8.346;2023-06-14T15:51:41;23.30;1.00
9699;DHT22;10089;47.876;8.346;2023-06-14T15:54:07;23.00;1.00
9699;DHT22;10089;47.876;8.346;2023-06-14T15:56:33;22.80;1.00
9699;DHT22;10089;47.876;8.346;2023-06-14T15:58:59;22.70;1.00
9699;DHT22;10089;47.876;8.346;2023-06-14T16:01:26;22.80;1.00
9699;DHT22;10089;47.876;8.346;2023-06-14T16:03:52;22.70;1.00
9699;DHT22;10089;47.876;8.346;2023-06-14T16:06:18;22.70;1.00
9699;DHT22;10089;47.876;8.346;2023-06-14T16:08:44;22.60;1.00